createdAt,value
2022-12-19T00:00:31.831Z,0.00
2022-12-19T00:05:20.180Z,0.00
2022-12-19T00:10:24.980Z,0.00
2022-12-19T00:15:30.664Z,0.00
2022-12-19T00:20:20.770Z,0.00
2022-12-19T00:25:25.818Z,0.00
2022-12-19T00:30:31.832Z,0.00
2022-12-19T00:35:21.024Z,0.00
2022-12-19T00:40:28.043Z,0.00
2022-12-19T00:45:15.977Z,0.00
2022-12-19T00:50:22.192Z,0.00
2022-12-19T00:55:28.131Z,0.00
2022-12-19T01:00:30.146Z,0.00
2022-12-19T01:05:22.637Z,0.00
2022-12-19T01:10:28.881Z,0.00
2022-12-19T01:15:18.292Z,0.00
2022-12-19T01:20:29.561Z,0.00
2022-12-19T01:25:30.449Z,0.00
2022-12-19T01:30:19.568Z,0.00
2022-12-19T01:35:25.542Z,0.00
2022-12-19T01:40:40.226Z,0.00
2022-12-19T01:45:20.712Z,0.00
2022-12-19T01:50:26.694Z,0.00
2022-12-19T01:55:32.731Z,0.00
2022-12-19T02:00:22.555Z,0.00
2022-12-19T02:05:27.129Z,0.00
2022-12-19T02:10:16.166Z,0.00
2022-12-19T02:15:21.967Z,0.00
2022-12-19T02:20:29.520Z,0.00
2022-12-19T02:25:16.986Z,0.00
2022-12-19T02:30:23.182Z,0.00
2022-12-19T02:35:29.103Z,0.00
2022-12-19T02:40:19.783Z,0.00
2022-12-19T02:45:28.536Z,0.00
2022-12-19T02:50:30.319Z,0.00
2022-12-19T02:55:19.374Z,0.00
2022-12-19T03:00:49.377Z,0.00
2022-12-19T03:05:30.804Z,0.00
2022-12-19T03:10:19.626Z,0.00
2022-12-19T03:15:26.832Z,0.00
2022-12-19T03:20:33.391Z,0.00
2022-12-19T03:25:21.634Z,0.00
2022-12-19T03:30:27.856Z,0.00
2022-12-19T03:35:16.752Z,0.00
2022-12-19T03:40:36.932Z,0.00
2022-12-19T03:45:29.008Z,0.00
2022-12-19T03:50:17.906Z,0.00
2022-12-19T03:55:24.136Z,0.00
2022-12-19T04:00:31.278Z,0.00
2022-12-19T04:05:19.487Z,0.00
2022-12-19T04:10:24.528Z,0.00
2022-12-19T04:15:30.536Z,0.00
2022-12-19T04:20:20.058Z,0.00
2022-12-19T04:25:29.405Z,0.00
2022-12-19T04:30:36.587Z,0.00
2022-12-19T04:35:20.351Z,0.00
2022-12-19T04:40:27.373Z,0.00
2022-12-19T04:45:32.644Z,0.00
2022-12-19T04:50:21.648Z,0.00
2022-12-19T04:55:27.619Z,0.00
2022-12-19T05:00:17.307Z,0.00
2022-12-19T05:05:22.284Z,0.00
2022-12-19T05:10:28.379Z,0.00
2022-12-19T05:15:16.997Z,0.00
2022-12-19T05:20:32.554Z,0.00
2022-12-19T05:25:28.977Z,0.00
2022-12-19T05:30:18.188Z,0.00
2022-12-19T05:35:24.119Z,0.00
2022-12-19T05:41:05.736Z,0.00
2022-12-19T05:45:19.184Z,0.00
2022-12-19T05:50:25.269Z,0.00
2022-12-19T05:55:31.317Z,0.00
2022-12-19T06:00:21.000Z,0.00
2022-12-19T06:05:26.768Z,0.00
2022-12-19T06:10:31.926Z,0.00
2022-12-19T06:15:21.546Z,0.00
2022-12-19T06:20:28.609Z,0.00
2022-12-19T06:25:16.642Z,0.00
2022-12-19T06:30:22.778Z,0.00
2022-12-19T06:35:28.736Z,0.00
2022-12-19T06:40:18.710Z,0.00
2022-12-19T06:45:24.062Z,0.00
2022-12-19T06:50:30.022Z,0.00
2022-12-19T06:55:18.951Z,0.00
2022-12-19T07:00:26.165Z,0.00
2022-12-19T07:05:30.318Z,0.02
2022-12-19T07:10:19.428Z,0.00
2022-12-19T07:15:25.187Z,0.24
2022-12-19T07:21:00.384Z,0.80
2022-12-19T07:25:20.329Z,1.77
2022-12-19T07:30:26.428Z,3.13
2022-12-19T07:35:32.389Z,4.18
2022-12-19T07:40:29.435Z,5.41
2022-12-19T07:45:27.604Z,7.14
2022-12-19T07:50:16.528Z,8.48
2022-12-19T07:55:22.702Z,10.33
2022-12-19T08:00:29.480Z,12.94
2022-12-19T08:05:18.394Z,13.97
2022-12-19T08:10:23.015Z,16.72
2022-12-19T08:15:28.963Z,20.21
2022-12-19T08:20:18.836Z,23.29
2022-12-19T08:25:23.972Z,27.14
2022-12-19T08:30:30.343Z,32.30
2022-12-19T08:35:19.047Z,36.14
2022-12-19T08:40:26.590Z,34.72
2022-12-19T08:45:31.222Z,35.03
2022-12-19T08:50:20.462Z,38.12
2022-12-19T08:55:26.323Z,41.36
2022-12-19T09:00:33.324Z,44.56
2022-12-19T09:05:57.865Z,46.15
2022-12-19T09:10:26.869Z,50.56
2022-12-19T09:15:16.606Z,50.69
2022-12-19T09:20:24.986Z,47.38
2022-12-19T09:25:28.797Z,48.91
2022-12-19T09:30:17.654Z,49.14
2022-12-19T09:35:28.554Z,45.04
2022-12-19T09:40:31.170Z,44.42
2022-12-19T09:45:31.395Z,43.38
2022-12-19T09:50:24.962Z,45.74
2022-12-19T09:55:31.098Z,50.31
2022-12-19T10:00:22.588Z,58.50
2022-12-19T10:06:15.529Z,64.57
2022-12-19T10:07:13.392Z,64.57
2022-12-19T10:12:38.646Z,68.28
2022-12-19T10:12:41.047Z,68.28
2022-12-19T10:12:53.067Z,68.28
2022-12-19T10:15:20.294Z,77.34
2022-12-19T10:20:27.592Z,83.21
2022-12-19T10:25:32.454Z,77.98
2022-12-19T10:30:21.347Z,68.97
2022-12-19T10:35:27.532Z,69.04
2022-12-19T10:40:27.781Z,70.27
2022-12-19T10:45:22.618Z,74.91
2022-12-19T10:50:28.611Z,78.82
2022-12-19T10:55:17.727Z,75.05
2022-12-19T11:00:32.911Z,70.02
2022-12-19T11:05:29.288Z,77.82
2022-12-19T11:10:36.815Z,83.90
2022-12-19T11:13:13.006Z,83.90
2022-12-19T11:17:53.935Z,83.90
2022-12-19T11:20:39.514Z,85.58
2022-12-19T11:21:33.163Z,85.58
2022-12-19T11:26:16.962Z,85.58
2022-12-19T11:29:26.910Z,84.97
2022-12-19T11:29:38.526Z,84.97
2022-12-19T11:29:41.965Z,84.97
2022-12-19T11:29:54.953Z,91.57
2022-12-19T11:30:36.675Z,91.57
2022-12-19T11:30:45.502Z,91.57
2022-12-19T11:31:50.864Z,100.38
2022-12-19T11:32:38.685Z,100.38
2022-12-19T11:35:37.185Z,105.34
2022-12-19T11:40:21.271Z,108.05
2022-12-19T11:45:26.474Z,98.59
2022-12-19T11:50:32.863Z,93.71
2022-12-19T11:55:21.581Z,102.49
2022-12-19T12:00:32.648Z,118.10
2022-12-19T12:05:17.209Z,113.52
2022-12-19T12:16:37.149Z,100.92
2022-12-19T12:18:03.661Z,100.92
2022-12-19T12:19:10.321Z,100.92
2022-12-19T12:20:18.576Z,75.38
2022-12-19T12:27:43.822Z,87.81
2022-12-19T12:29:16.551Z,87.81
2022-12-19T12:31:01.792Z,87.81
2022-12-19T12:31:20.598Z,75.38
2022-12-19T12:31:28.410Z,75.38
2022-12-19T12:31:52.581Z,70.82
2022-12-19T12:31:53.910Z,70.48
2022-12-19T12:31:57.584Z,70.48
2022-12-19T12:31:58.645Z,70.48
2022-12-19T12:35:41.443Z,70.82
2022-12-19T12:40:26.162Z,66.26
2022-12-19T12:45:30.952Z,68.60
2022-12-19T12:50:19.993Z,70.70
2022-12-19T12:55:26.016Z,68.51
2022-12-19T13:00:33.271Z,63.64
2022-12-19T13:05:20.428Z,59.37
2022-12-19T13:10:26.499Z,60.92
2022-12-19T13:15:32.374Z,56.57
2022-12-19T13:20:22.603Z,50.70
2022-12-19T13:25:27.481Z,51.62
2022-12-19T13:30:16.566Z,49.12
2022-12-19T13:36:56.600Z,41.84
2022-12-19T13:39:49.081Z,41.84
2022-12-19T13:40:00.347Z,41.84
2022-12-19T13:45:17.936Z,34.32
2022-12-19T13:50:23.840Z,33.15
2022-12-19T13:55:29.743Z,35.04
2022-12-19T14:01:08.446Z,34.93
2022-12-19T14:11:35.041Z,26.67
2022-12-19T14:12:22.505Z,26.67
2022-12-19T14:13:48.255Z,26.67
2022-12-19T14:30:29.805Z,13.82
2022-12-19T14:36:10.977Z,11.84
2022-12-19T14:41:12.648Z,8.93
2022-12-19T14:52:35.007Z,8.02
2022-12-19T14:54:05.643Z,8.02
2022-12-19T14:54:07.367Z,6.05
2022-12-19T14:54:12.043Z,8.02
2022-12-19T14:54:28.084Z,6.05
2022-12-19T14:54:31.213Z,6.05
2022-12-19T14:56:08.550Z,4.14
2022-12-19T14:56:40.601Z,4.14
2022-12-19T15:01:30.117Z,2.20
2022-12-19T15:05:28.904Z,0.83
2022-12-19T15:11:05.552Z,0.00
2022-12-19T15:15:23.594Z,0.00
2022-12-19T15:20:57.817Z,0.00
2022-12-19T15:25:52.712Z,0.00
2022-12-19T15:30:24.828Z,0.00
2022-12-19T15:35:30.868Z,0.00
2022-12-19T15:41:07.534Z,0.00
2022-12-19T15:45:25.954Z,0.00
2022-12-19T15:50:31.990Z,0.00
2022-12-19T15:55:21.041Z,0.00
2022-12-19T16:01:31.754Z,0.00
2022-12-19T16:05:33.243Z,0.00
2022-12-19T16:10:21.774Z,0.00
2022-12-19T16:15:27.223Z,0.00
2022-12-19T16:20:44.982Z,0.00
2022-12-19T16:25:22.305Z,0.00
2022-12-19T16:30:28.432Z,0.00
2022-12-19T16:35:24.020Z,0.00
2022-12-19T16:41:05.106Z,0.00
2022-12-19T16:45:29.513Z,0.00
2022-12-19T16:50:18.615Z,0.00
2022-12-19T16:55:24.676Z,0.00
2022-12-19T17:01:06.812Z,0.00
2022-12-19T17:05:22.879Z,0.00
2022-12-19T17:10:26.645Z,0.00
2022-12-19T17:15:31.345Z,0.00
2022-12-19T17:21:01.259Z,0.00
2022-12-19T17:25:26.011Z,0.00
2022-12-19T17:30:32.364Z,0.00
2022-12-19T17:35:27.267Z,0.00
2022-12-19T17:40:53.337Z,0.00
2022-12-19T17:45:16.229Z,0.00
2022-12-19T17:50:22.264Z,0.00
2022-12-19T17:55:28.351Z,0.00
2022-12-19T18:01:32.990Z,0.00
2022-12-19T18:05:28.490Z,0.00
2022-12-19T18:10:28.808Z,0.00
2022-12-19T18:15:18.553Z,0.00
2022-12-19T18:20:52.064Z,0.00
2022-12-19T18:25:30.613Z,0.00
2022-12-19T18:30:19.719Z,0.00
2022-12-19T18:35:25.755Z,0.00
2022-12-19T18:41:49.932Z,0.00
2022-12-19T18:45:20.798Z,0.00
2022-12-19T18:50:26.988Z,0.00
2022-12-19T18:55:33.060Z,0.00
2022-12-19T19:01:02.510Z,0.00
2022-12-19T19:05:27.418Z,0.00
2022-12-19T19:10:16.828Z,0.00
2022-12-19T19:15:22.429Z,0.00
2022-12-19T19:21:26.257Z,0.00
2022-12-19T19:25:18.152Z,0.00
2022-12-19T19:30:23.354Z,0.00
2022-12-19T19:35:29.409Z,0.00
2022-12-19T19:40:40.479Z,0.00
2022-12-19T19:45:24.522Z,0.00
2022-12-19T19:50:30.558Z,0.00
2022-12-19T19:55:19.595Z,0.00
2022-12-19T20:03:08.497Z,0.00
2022-12-19T20:05:31.016Z,0.00
2022-12-19T20:10:20.107Z,0.00
2022-12-19T20:15:25.984Z,0.00
2022-12-19T20:21:01.445Z,0.00
2022-12-19T20:25:20.932Z,0.00
2022-12-19T20:30:27.031Z,0.00
2022-12-19T20:35:16.065Z,0.00
2022-12-19T20:41:06.384Z,0.00
2022-12-19T20:45:28.250Z,0.00
2022-12-19T20:50:17.393Z,0.00
2022-12-19T20:55:23.371Z,0.00
2022-12-19T21:01:35.275Z,0.00
2022-12-19T21:05:17.794Z,0.00
2022-12-19T21:10:23.840Z,0.00
2022-12-19T21:15:30.663Z,0.00
2022-12-19T21:20:49.248Z,0.00
2022-12-19T21:25:25.705Z,0.00
2022-12-19T21:30:31.883Z,0.00
2022-12-19T21:35:20.810Z,0.00
2022-12-19T21:41:04.349Z,0.00
2022-12-19T21:45:32.962Z,0.00
2022-12-19T21:50:21.983Z,0.00
2022-12-19T21:55:28.074Z,0.00
2022-12-19T22:01:08.280Z,0.00
2022-12-19T22:05:28.669Z,0.00
2022-12-19T22:10:28.541Z,0.00
2022-12-19T22:15:17.244Z,0.00
2022-12-19T22:21:01.335Z,0.00
2022-12-19T22:25:29.354Z,0.00
2022-12-19T22:30:18.441Z,0.00
2022-12-19T22:35:25.004Z,0.00
2022-12-19T22:41:08.027Z,0.00
2022-12-19T22:45:19.585Z,0.00
2022-12-19T22:50:25.677Z,0.00
2022-12-19T22:55:31.797Z,0.00
2022-12-19T23:01:29.221Z,0.00
2022-12-19T23:05:26.577Z,0.00
2022-12-19T23:10:35.628Z,0.00
2022-12-19T23:15:21.112Z,0.00
2022-12-19T23:20:49.399Z,0.00
2022-12-19T23:25:16.311Z,0.00
2022-12-19T23:30:22.177Z,0.00
2022-12-19T23:35:28.320Z,0.00
2022-12-19T23:41:35.611Z,0.00
2022-12-19T23:45:30.535Z,0.00
2022-12-19T23:50:29.406Z,0.00
2022-12-19T23:55:18.377Z,0.00
